Time;durP1;ratioP1;P1;durP2;ratioP2;P2;SDS_P1;SDS_P2;PMS_P1;PMS_P2;Temp;Humidity;BMP_temperature;BMP_pressure;BME280_temperature;BME280_humidity;BME280_pressure;Samples;Min_cycle;Max_cycle;Signal;HPM_P1;HPM_P2
2021/09/29 00:02:19;;;;;;;;;;;;;;;;;;5070764;28;20011;-64
2021/09/29 00:04:48;;;;;;;;;;;;;;;;;;5069811;28;19924;-64
2021/09/29 00:07:17;;;;;;;;;;;;;;;;;;5069622;28;19920;-65
2021/09/29 00:09:47;;;;;;;;;;;;;;;;;;5067960;28;20011;-64
2021/09/29 00:12:16;;;;;;;;;;;;;;;;;;5070306;28;19931;-64
2021/09/29 00:14:49;;;;;;;;;;;;;;;;;;5073976;28;19920;-64
2021/09/29 00:17:17;;;;;;;;;;;;;;;;;;5066869;28;20346;-64
2021/09/29 00:19:48;;;;;;;;;;;;;;;;;;5075282;28;20361;-64
2021/09/29 00:22:19;;;;;;;;;;;;;;;;;;5072586;28;19929;-64
2021/09/29 00:24:50;;;;;;;;;;;;;;;;;;5074090;28;19920;-64
2021/09/29 00:27:21;;;;;;;;;;;;;;;;;;5073678;28;19921;-64
2021/09/29 00:29:54;;;;;;;;;;;;;;;;;;5059535;28;20281;-64
2021/09/29 00:32:24;;;;;;;;;;;;;;;;;;5068203;28;19920;-64
2021/09/29 00:34:52;;;;;;;;;;;;;;;;;;5071494;28;19977;-64
2021/09/29 00:37:23;;;;;;;;;;;;;;;;;;5068885;28;19943;-64
2021/09/29 00:39:53;;;;;;;;;;;;;;;;;;5071050;28;21162;-64
2021/09/29 00:42:24;;;;;;;;;;;;;;;;;;5068776;28;19977;-64
2021/09/29 00:44:55;;;;;;;;;;;;;;;;;;5069787;28;20426;-65
2021/09/29 00:47:29;;;;;;;;;;;;;;;;;;5070202;28;20296;-65
2021/09/29 00:50:00;;;;;;;;;;;;;;;;;;5068167;28;19930;-65
2021/09/29 00:52:29;;;;;;;;;;;;;;;;;;5064765;28;20023;-65
2021/09/29 00:55:01;;;;;;;;;;;;;;;;;;5067308;28;19961;-63
2021/09/29 00:57:31;;;;;;;;;;;;;;;;;;5070413;28;19946;-65
2021/09/29 00:59:59;;;;;;;;;;;;;;;;;;5069768;28;19928;-65
2021/09/29 01:02:31;;;;;;;;;;;;;;;;;;5071246;28;19920;-65
2021/09/29 01:05:02;;;;;;;;;;;;;;;;;;5069274;28;19951;-65
2021/09/29 01:07:33;;;;;;;;;;;;;;;;;;5058344;28;19924;-65
2021/09/29 01:10:03;;;;;;;;;;;;;;;;;;5071295;28;19931;-65
2021/09/29 01:12:34;;;;;;;;;;;;;;;;;;5058347;28;19920;-65
2021/09/29 01:15:04;;;;;;;;;;;;;;;;;;5076251;28;19937;-65
2021/09/29 01:17:35;;;;;;;;;;;;;;;;;;5072873;28;19924;-65
2021/09/29 01:20:05;;;;;;;;;;;;;;;;;;5072796;28;19956;-66
2021/09/29 01:22:36;;;;;;;;;;;;;;;;;;5073964;28;19952;-66
2021/09/29 01:25:06;;;;;;;;;;;;;;;;;;5066268;28;19942;-66
2021/09/29 01:27:37;;;;;;;;;;;;;;;;;;5066096;28;19947;-66
2021/09/29 01:30:08;;;;;;;;;;;;;;;;;;5074577;28;19937;-65
2021/09/29 01:32:39;;;;;;;;;;;;;;;;;;5073283;28;20006;-65
2021/09/29 01:35:12;;;;;;;;;;;;;;;;;;5073163;28;19932;-65
2021/09/29 01:37:43;;;;;;;;;;;;;;;;;;5071065;28;19920;-65
2021/09/29 01:40:14;;;;;;;;;;;;;;;;;;5073606;28;19920;-65
2021/09/29 01:42:43;;;;;;;;;;;;;;;;;;5072943;28;19920;-65
2021/09/29 01:45:16;;;;;;;;;;;;;;;;;;5073029;28;19920;-65
2021/09/29 01:47:43;;;;;;;;;;;;;;;;;;5071822;28;20275;-65
2021/09/29 01:50:10;;;;;;;;;;;;;;;;;;5073020;28;20537;-65
2021/09/29 01:52:39;;;;;;;;;;;;;;;;;;5072819;28;19924;-65
2021/09/29 01:55:11;;;;;;;;;;;;;;;;;;5081005;28;19970;-65
2021/09/29 01:57:39;;;;;;;;;;;;;;;;;;5071799;28;19936;-64
2021/09/29 02:00:09;;;;;;;;;;;;;;;;;;5072727;28;20007;-65
2021/09/29 02:02:39;;;;;;;;;;;;;;;;;;5065757;28;19928;-65
2021/09/29 02:05:12;;;;;;;;;;;;;;;;;;5064737;28;20318;-65
2021/09/29 02:07:41;;;;;;;;;;;;;;;;;;5073499;28;19936;-66
2021/09/29 02:10:10;;;;;;;;;;;;;;;;;;5067034;28;19953;-66
2021/09/29 02:12:43;;;;;;;;;;;;;;;;;;5072419;28;19971;-66
2021/09/29 02:15:14;;;;;;;;;;;;;;;;;;5070647;28;19931;-65
2021/09/29 02:17:45;;;;;;;;;;;;;;;;;;5073262;28;19920;-65
2021/09/29 02:20:16;;;;;;;;;;;;;;;;;;5068088;28;20366;-64
2021/09/29 02:22:46;;;;;;;;;;;;;;;;;;5083889;28;19928;-64
2021/09/29 02:25:17;;;;;;;;;;;;;;;;;;5068996;28;19963;-66
2021/09/29 02:27:48;;;;;;;;;;;;;;;;;;5062170;28;20206;-66
2021/09/29 02:30:22;;;;;;;;;;;;;;;;;;5070309;28;20015;-65
2021/09/29 02:32:55;;;;;;;;;;;;;;;;;;5072451;28;19953;-65
2021/09/29 02:35:24;;;;;;;;;;;;;;;;;;5072172;28;19966;-65
2021/09/29 02:37:53;;;;;;;;;;;;;;;;;;5070037;28;19920;-65
2021/09/29 02:40:23;;;;;;;;;;;;;;;;;;5062674;28;20023;-65
2021/09/29 02:43:03;;;;;;;;;;;;;;;;;;5064028;28;19954;-65
2021/09/29 02:45:30;;;;;;;;;;;;;;;;;;5058441;28;19921;-65
2021/09/29 02:48:11;;;;;;;;;;;;;;;;;;5067275;28;20007;-65
2021/09/29 02:50:40;;;;;;;;;;;;;;;;;;5077856;28;20235;-65
2021/09/29 02:53:10;;;;;;;;;;;;;;;;;;5070076;28;19954;-65
2021/09/29 02:55:40;;;;;;;;;;;;;;;;;;5071920;28;19926;-65
2021/09/29 02:58:10;;;;;;;;;;;;;;;;;;5070238;28;20343;-65
2021/09/29 03:00:38;;;;;;;;;;;;;;;;;;5059480;28;19949;-65
2021/09/29 03:03:14;;;;;;;;;;;;;;;;;;5065575;28;20020;-65
2021/09/29 03:05:44;;;;;;;;;;;;;;;;;;5059162;28;20445;-65
2021/09/29 03:08:14;;;;;;;;;;;;;;;;;;5069909;28;19934;-65
2021/09/29 03:10:44;;;;;;;;;;;;;;;;;;5070899;28;19931;-65
2021/09/29 03:13:14;;;;;;;;;;;;;;;;;;5069099;28;19953;-65
2021/09/29 03:15:58;;;;;;;;;;;;;;;;;;5067886;28;20703;-65
2021/09/29 03:18:29;;;;;;;;;;;;;;;;;;5059850;28;19920;-65
2021/09/29 03:20:59;;;;;;;;;;;;;;;;;;5067608;28;19942;-66
2021/09/29 03:23:31;;;;;;;;;;;;;;;;;;5059712;28;20002;-66
2021/09/29 03:26:03;;;;;;;;;;;;;;;;;;5068989;28;20447;-66
2021/09/29 03:28:31;;;;;;;;;;;;;;;;;;5071142;28;20000;-66
2021/09/29 03:31:00;;;;;;;;;;;;;;;;;;5070163;28;19924;-65
2021/09/29 03:33:31;;;;;;;;;;;;;;;;;;5058964;28;20222;-65
2021/09/29 03:36:05;;;;;;;;;;;;;;;;;;5068621;28;19946;-64
2021/09/29 03:38:37;;;;;;;;;;;;;;;;;;5068016;28;19946;-65
2021/09/29 03:41:09;;;;;;;;;;;;;;;;;;5061995;28;19936;-65
2021/09/29 03:43:44;;;;;;;;;;;;;;;;;;5048286;28;19947;-65
2021/09/29 03:46:15;;;;;;;;;;;;;;;;;;5068939;28;19928;-65
2021/09/29 03:48:47;;;;;;;;;;;;;;;;;;5069855;28;19955;-65
2021/09/29 03:51:16;;;;;;;;;;;;;;;;;;5053482;28;19920;-65
2021/09/29 03:53:44;;;;;;;;;;;;;;;;;;5068038;28;19960;-65
2021/09/29 03:56:15;;;;;;;;;;;;;;;;;;5059183;28;19978;-65
2021/09/29 03:58:44;;;;;;;;;;;;;;;;;;5069240;28;19952;-65
2021/09/29 04:01:19;;;;;;;;;;;;;;;;;;5070241;28;19982;-66
2021/09/29 04:03:52;;;;;;;;;;;;;;;;;;5069698;28;19935;-65
2021/09/29 04:06:23;;;;;;;;;;;;;;;;;;5071014;28;20289;-65
2021/09/29 04:08:55;;;;;;;;;;;;;;;;;;5069129;28;19955;-65
2021/09/29 04:11:24;;;;;;;;;;;;;;;;;;5053915;28;19937;-66
2021/09/29 04:13:58;;;;;;;;;;;;;;;;;;5068931;28;19971;-65
2021/09/29 04:16:27;;;;;;;;;;;;;;;;;;5063425;28;20480;-65
2021/09/29 04:19:01;;;;;;;;;;;;;;;;;;5068420;28;19954;-65
2021/09/29 04:21:31;;;;;;;;;;;;;;;;;;5070309;28;19920;-65
2021/09/29 04:24:02;;;;;;;;;;;;;;;;;;5069825;28;19935;-65
2021/09/29 04:26:29;;;;;;;;;;;;;;;;;;5068808;28;19956;-65
2021/09/29 04:28:59;;;;;;;;;;;;;;;;;;5070817;28;20046;-65
2021/09/29 04:31:31;;;;;;;;;;;;;;;;;;5069766;28;20355;-65
2021/09/29 04:34:01;;;;;;;;;;;;;;;;;;5071508;28;19962;-65
2021/09/29 04:36:31;;;;;;;;;;;;;;;;;;5052062;28;19935;-65
2021/09/29 04:39:02;;;;;;;;;;;;;;;;;;5071181;28;19920;-65
2021/09/29 04:41:31;;;;;;;;;;;;;;;;;;5068481;28;19940;-65
2021/09/29 04:44:02;;;;;;;;;;;;;;;;;;5070595;28;19920;-65
2021/09/29 04:46:32;;;;;;;;;;;;;;;;;;5067247;28;20378;-65
2021/09/29 04:48:59;;;;;;;;;;;;;;;;;;5045435;28;19924;-65
2021/09/29 04:51:28;;;;;;;;;;;;;;;;;;5049159;28;19920;-65
2021/09/29 04:53:59;;;;;;;;;;;;;;;;;;5049812;28;19956;-65
2021/09/29 04:56:30;;;;;;;;;;;;;;;;;;5045911;28;19937;-65
2021/09/29 04:59:01;;;;;;;;;;;;;;;;;;5041020;28;20339;-65
2021/09/29 05:01:31;;;;;;;;;;;;;;;;;;5046988;28;20243;-65
2021/09/29 05:04:02;;;;;;;;;;;;;;;;;;5040429;28;19970;-65
2021/09/29 05:06:33;;;;;;;;;;;;;;;;;;5042251;28;19967;-65
2021/09/29 05:09:04;;;;;;;;;;;;;;;;;;5042808;28;19921;-65
2021/09/29 05:11:34;;;;;;;;;;;;;;;;;;5038381;28;20284;-65
2021/09/29 05:14:04;;;;;;;;;;;;;;;;;;5042972;28;19928;-65
2021/09/29 05:16:34;;;;;;;;;;;;;;;;;;5046429;28;19967;-65
2021/09/29 05:19:06;;;;;;;;;;;;;;;;;;5041550;28;19944;-65
2021/09/29 05:21:34;;;;;;;;;;;;;;;;;;5050899;28;19940;-65
2021/09/29 05:24:05;;;;;;;;;;;;;;;;;;5048330;28;19941;-65
2021/09/29 05:26:33;;;;;;;;;;;;;;;;;;5037361;28;19953;-65
2021/09/29 05:29:03;;;;;;;;;;;;;;;;;;5043017;28;19938;-66
2021/09/29 05:31:33;;;;;;;;;;;;;;;;;;5040545;28;20031;-65
2021/09/29 05:34:05;;;;;;;;;;;;;;;;;;5047485;28;20571;-65
2021/09/29 05:36:34;;;;;;;;;;;;;;;;;;5056275;28;19943;-65
2021/09/29 05:39:05;;;;;;;;;;;;;;;;;;5042535;28;20043;-65
2021/09/29 05:41:35;;;;;;;;;;;;;;;;;;5044783;28;20011;-64
2021/09/29 05:44:04;;;;;;;;;;;;;;;;;;5049242;28;19973;-64
2021/09/29 05:46:35;;;;;;;;;;;;;;;;;;5054038;28;20499;-65
2021/09/29 05:49:06;;;;;;;;;;;;;;;;;;5049932;28;20602;-65
2021/09/29 05:51:36;;;;;;;;;;;;;;;;;;5052568;28;19928;-64
2021/09/29 05:54:06;;;;;;;;;;;;;;;;;;5030160;28;20358;-65
2021/09/29 05:56:38;;;;;;;;;;;;;;;;;;5056218;28;20046;-65
2021/09/29 05:59:10;;;;;;;;;;;;;;;;;;5048296;28;19937;-65
2021/09/29 06:01:53;;;;;;;;;;;;;;;;;;5063052;28;20432;-65
2021/09/29 06:04:26;;;;;;;;;;;;;;;;;;5047419;28;20437;-65
2021/09/29 06:06:58;;;;;;;;;;;;;;;;;;5043891;28;19938;-66
2021/09/29 06:09:32;;;;;;;;;;;;;;;;;;5051539;28;19937;-65
2021/09/29 06:12:03;;;;;;;159.38;28.40;;;;;;;;;;5045693;28;20424;-72
2021/09/29 06:14:50;;;;;;;98.97;21.43;;;;;;;;;;5050308;28;20289;-70
2021/09/29 06:17:22;;;;;;;95.57;21.70;;;;;;;;;;5051600;28;20215;-70
2021/09/29 06:19:54;;;;;;;90.67;19.97;;;;;;;;;;5034834;28;20216;-71
2021/09/29 06:22:24;;;;;;;70.73;18.33;;;;;;;;;;5054659;28;20212;-69
2021/09/29 06:24:54;;;;;;;74.87;18.83;;;;;;;;;;5043403;28;20222;-70
2021/09/29 06:27:27;;;;;;;60.97;16.57;;;;;;;;;;5038560;28;20648;-69
2021/09/29 06:30:05;;;;;;;55.33;14.23;;;;;;;;;;5049491;28;20206;-70
2021/09/29 06:32:36;;;;;;;54.33;14.33;;;;;;;;;;5053087;28;20207;-70
2021/09/29 06:35:07;;;;;;;47.87;13.50;;;;;;;;;;5041455;28;20203;-68
2021/09/29 06:37:39;;;;;;;39.17;12.83;;;;;;;;;;5038146;28;20191;-69
2021/09/29 06:40:12;;;;;;;26.90;10.37;;;;;;;;;;5032058;28;20211;-70
2021/09/29 06:42:42;;;;;;;35.20;10.83;;;;;;;;;;5054124;28;20636;-72
2021/09/29 06:45:16;;;;;;;25.03;10.47;;;;;;;;;;5048828;28;20267;-70
2021/09/29 06:47:48;;;;;;;25.20;9.93;;;;;;;;;;5050738;28;20194;-69
2021/09/29 06:50:19;;;;;;;;;;;;;;;;;;5068136;28;20199;-70
2021/09/29 06:52:58;;;;;;;;;;;;;;;;;;5073784;28;19949;-70
2021/09/29 06:55:29;;;;;;;;;;;;;;;;;;5070002;28;19940;-67
2021/09/29 06:57:58;;;;;;;;;;;;;;;;;;5071246;28;19950;-68
2021/09/29 07:00:27;;;;;;;;;;;;;;;;;;5072196;28;19944;-72
2021/09/29 07:02:57;;;;;;;;;;;;;;;;;;5065510;28;19953;-69
2021/09/29 07:05:27;;;;;;;;;;;;;;;;;;5068440;28;19930;-66
2021/09/29 07:07:59;;;;;;;;;;;;;;;;;;5067631;28;19940;-67
2021/09/29 07:10:32;;;;;;;;;;;;;;;;;;5071746;28;20219;-71
2021/09/29 07:13:04;;;;;;;;;;;;;;;;;;5071085;28;19948;-70
2021/09/29 07:15:32;;;;;;;;;;;;;;;;;;5070703;28;19920;-69
2021/09/29 07:18:04;;;;;;;;;;;;;;;;;;5058907;28;20356;-71
2021/09/29 07:20:33;;;;;;;;;;;;;;;;;;5070951;28;19920;-68
2021/09/29 07:23:04;;;;;;;;;;;;;;;;;;5070493;28;19934;-66
2021/09/29 07:25:35;;;;;;;;;;;;;;;;;;5070625;28;19931;-67
2021/09/29 07:28:07;;;;;;;;;;;;;;;;;;5062125;28;19957;-67
2021/09/29 07:30:40;;;;;;;;;;;;;;;;;;5070691;28;20011;-68
2021/09/29 07:33:14;;;;;;;;;;;;;;;;;;5066371;28;19949;-68
2021/09/29 07:35:45;;;;;;;;;;;;;;;;;;5069513;28;19935;-68
2021/09/29 07:38:15;;;;;;;;;;;;;;;;;;5075244;28;20382;-68
2021/09/29 07:40:47;;;;;;;;;;;;;;;;;;5070434;28;19938;-71
2021/09/29 07:43:14;;;;;;;;;;;;;;;;;;5076533;28;19965;-70
2021/09/29 07:45:55;;;;;;;;;;;;;;;;;;5075822;28;20029;-72
2021/09/29 07:48:25;;;;;;;;;;;;;;;;;;5067878;28;19928;-71
2021/09/29 07:50:56;;;;;;;;;;;;;;;;;;5068132;28;19929;-71
2021/09/29 07:53:25;;;;;;;;;;;;;;;;;;5071633;28;20308;-71
2021/09/29 07:55:57;;;;;;;;;;;;;;;;;;5071410;28;19942;-70
2021/09/29 07:58:27;;;;;;;;;;;;;;;;;;5070957;28;20402;-69
2021/09/29 08:01:01;;;;;;;;;;;;;;;;;;5072452;28;19946;-67
2021/09/29 08:03:32;;;;;;;;;;;;;;;;;;5066670;28;20392;-67
2021/09/29 08:06:03;;;;;;;;;;;;;;;;;;5069163;28;19938;-68
2021/09/29 08:08:35;;;;;;;;;;;;;;;;;;5067168;28;19944;-71
2021/09/29 08:11:06;;;;;;;;;;;;;;;;;;5075115;28;19955;-67
2021/09/29 08:13:34;;;;;;;;;;;;;;;;;;5063934;28;19988;-69
2021/09/29 08:16:03;;;;;;;;;;;;;;;;;;5070497;28;20010;-67
2021/09/29 08:18:37;;;;;;;;;;;;;;;;;;5069877;28;19961;-69
2021/09/29 08:21:13;;;;;;;;;;;;;;;;;;5072726;28;20592;-73
2021/09/29 08:23:49;;;;;;;;;;;;;;;;;;5071282;28;19945;-69
2021/09/29 08:29:41;;;;;;;;;;;;;;;;;;5070518;28;19963;-67
2021/09/29 08:32:12;;;;;;;;;;;;;;;;;;5045731;28;19938;-63
2021/09/29 08:34:55;;;;;;;;;;;;;;;;;;5068629;28;19981;-63
2021/09/29 08:37:49;;;;;;;;;;;;;;;;;;5069894;28;20302;-65
2021/09/29 08:43:18;;;;;;;;;;;;;;;;;;5033865;28;19921;-66
2021/09/29 08:45:59;;;;;;;;;;;;;;;;;;5068690;28;19950;-65
2021/09/29 08:48:45;;;;;;;;;;;;;;;;;;5064269;28;19965;-65
2021/09/29 08:54:36;;;;;;;;;;;;;;;;;;5071477;28;19957;-68
2021/09/29 09:16:55;;;;;;;;;;;;;;;;;;5068569;28;19952;-70
2021/09/29 09:19:41;;;;;;;;;;;;;;;;;;5066483;28;20472;-68
2021/09/29 09:22:12;;;;;;;;;;;;;;;;;;5049494;28;19960;-69
2021/09/29 09:24:44;;;;;;;;;;;;;;;;;;5060111;28;19944;-70
2021/09/29 09:27:15;;;;;;;;;;;;;;;;;;5051303;28;19939;-72
2021/09/29 09:29:46;;;;;;;;;;;;;;;;;;5071363;28;19937;-72
2021/09/29 09:32:15;;;;;;;;;;;;;;;;;;5054243;28;19942;-72
2021/09/29 09:34:46;;;;;;;;;;;;;;;;;;5069430;28;19958;-73
2021/09/29 09:37:28;;;;;;;;;;;;;;;;;;5068830;28;19990;-72
2021/09/29 09:39:56;;;;;;;;;;;;;;;;;;5054724;28;20263;-70
2021/09/29 09:42:24;;;;;;;;;;;;;;;;;;5071266;28;19941;-69
2021/09/29 09:44:55;;;;;;;;;;;;;;;;;;5070261;28;19932;-71
2021/09/29 09:47:26;;;;;;;;;;;;;;;;;;5077044;28;19953;-71
2021/09/29 09:49:56;;;;;;;;;;;;;;;;;;5070054;28;19924;-70
2021/09/29 09:52:29;;;;;;;;;;;;;;;;;;5071728;28;19920;-69
2021/09/29 09:55:04;;;;;;;;;;;;;;;;;;5073049;28;19947;-69
2021/09/29 09:57:34;;;;;;;;;;;;;;;;;;5072436;28;19920;-68
2021/09/29 10:00:06;;;;;;;;;;;;;;;;;;5071053;28;19938;-67
2021/09/29 10:02:36;;;;;;;;;;;;;;;;;;5072405;28;20430;-67
2021/09/29 10:05:07;;;;;;;;;;;;;;;;;;5076504;28;21364;-68
2021/09/29 10:07:41;;;;;;;;;;;;;;;;;;5066530;28;20502;-68
2021/09/29 10:13:10;;;;;;;;;;;;;;;;;;5070716;28;19955;-68
2021/09/29 10:24:11;;;;;;;;;;;;;;;;;;5075012;28;19938;-68
2021/09/29 10:26:42;;;;;;;;;;;;;;;;;;5067745;28;19957;-68
2021/09/29 10:29:13;;;;;;;;;;;;;;;;;;5063490;28;19946;-67
2021/09/29 10:32:08;;;;;;;;;;;;;;;;;;5069162;28;19990;-67
2021/09/29 10:34:49;;;;;;;;;;;;;;;;;;5070507;28;19952;-68
2021/09/29 10:37:36;;;;;;;;;;;;;;;;;;5067915;28;19934;-71
2021/09/29 10:43:12;;;;;;;;;;;;;;;;;;5017099;28;20434;-67
2021/09/29 10:46:08;;;;;;;;;;;;;;;;;;5047465;28;19929;-68
2021/09/29 11:06:01;;;;;;;;;;;;;;;;;;5043724;28;19929;-65
2021/09/29 11:30:34;;;;;;;;;;;;;;;;;;5061866;28;20067;-71
2021/09/29 11:33:21;;;;;;;;;;;;;;;;;;5063101;28;19947;-71
2021/09/29 11:36:16;;;;;;;;;;;;;;;;;;5070769;28;19955;-72
2021/09/29 12:09:53;;;;;;;;;;;;;;;;;;5067724;28;19953;-67
2021/09/29 12:12:35;;;;;;;;;;;;;;;;;;5069713;28;19938;-68
2021/09/29 12:15:03;;;;;;;;;;;;;;;;;;5060570;28;19928;-67
2021/09/29 12:17:35;;;;;;;;;;;;;;;;;;5063458;28;19942;-70
2021/09/29 12:20:12;;;;;;;;;;;;;;;;;;5065212;28;19992;-72
2021/09/29 12:22:47;;;;;;;;;;;;;;;;;;5066543;28;19945;-70
2021/09/29 12:25:17;;;;;;;;;;;;;;;;;;5068344;28;19941;-72
2021/09/29 12:28:11;;;;;;;;;;;;;;;;;;5067660;28;19944;-73
2021/09/29 12:30:48;;;;;;;;;;;;;;;;;;5056921;28;20001;-73
2021/09/29 12:36:15;;;;;;;;;;;;;;;;;;5066515;28;19959;-72
2021/09/29 12:38:51;;;;;;;;;;;;;;;;;;5067313;28;19924;-70
2021/09/29 12:41:35;;;;;;;;;;;;;;;;;;5066638;28;19983;-71
2021/09/29 12:44:03;;;;;;;;;;;;;;;;;;5069249;28;19956;-71
2021/09/29 12:46:35;;;;;;;;;;;;;;;;;;5068752;28;19953;-71
2021/09/29 12:49:19;;;;;;;;;;;;;;;;;;5066022;28;19953;-67
2021/09/29 12:52:10;;;;;;;;;;;;;;;;;;5065021;28;19965;-72
2021/09/29 12:54:40;;;;;;;;;;;;;;;;;;5070465;28;19961;-72
2021/09/29 12:57:12;;;;;;;;;;;;;;;;;;5067564;28;19958;-71
2021/09/29 12:59:42;;;;;;;;;;;;;;;;;;5066483;28;19927;-76
2021/09/29 13:02:13;;;;;;;;;;;;;;;;;;5054947;28;19952;-68
2021/09/29 13:04:44;;;;;;;;;;;;;;;;;;5064499;28;19963;-69
2021/09/29 13:07:13;;;;;;;;;;;;;;;;;;5072899;28;20303;-71
2021/09/29 13:09:44;;;;;;;;;;;;;;;;;;5066797;28;20404;-70
2021/09/29 13:12:11;;;;;;;;;;;;;;;;;;5070765;28;19942;-69
2021/09/29 13:14:42;;;;;;;;;;;;;;;;;;5071904;28;20385;-69
2021/09/29 13:17:12;;;;;;;;;;;;;;;;;;5071730;28;19936;-69
2021/09/29 13:19:55;;;;;;;;;;;;;;;;;;5057326;28;19973;-70
2021/09/29 13:22:27;;;;;;;;;;;;;;;;;;5074153;28;19934;-67
2021/09/29 13:38:30;;;;;;;;;;;;;;;;;;5074261;28;19934;-69
2021/09/29 13:41:00;;;;;;;;;;;;;;;;;;5072557;28;19956;-71
2021/09/29 13:43:29;;;;;;;;;;;;;;;;;;5070430;28;20352;-69
2021/09/29 13:45:59;;;;;;;;;;;;;;;;;;5074665;28;19924;-67
2021/09/29 13:48:31;;;;;;;;;;;;;;;;;;5076087;28;19962;-68
2021/09/29 13:51:01;;;;;;;;;;;;;;;;;;5049601;28;19990;-67
2021/09/29 13:53:33;;;;;;;;;;;;;;;;;;5053201;28;20288;-68
2021/09/29 13:56:05;;;;;;;;;;;;;;;;;;5039544;28;19959;-66
2021/09/29 13:59:02;;;;;;;;;;;;;;;;;;5032860;28;19943;-66
2021/09/29 14:29:44;;;;;;;;;;;;;;;;;;5050455;28;19961;-64
2021/09/29 14:32:30;;;;;;;;;;;;;;;;;;5043213;28;19949;-69
2021/09/29 14:35:09;;;;;;;;;;;;;;;;;;5044277;28;19950;-67
2021/09/29 14:37:39;;;;;;;;;;;;;;;;;;5046650;28;19972;-69
2021/09/29 14:40:09;;;;;;;;;;;;;;;;;;5050335;28;19942;-68
2021/09/29 14:42:37;;;;;;;;;;;;;;;;;;5051685;28;19987;-68
2021/09/29 14:45:07;;;;;;;;;;;;;;;;;;5048800;28;19935;-68
2021/09/29 14:47:37;;;;;;;;;;;;;;;;;;5050052;28;19952;-67
2021/09/29 14:50:07;;;;;;;;;;;;;;;;;;5070404;28;19920;-66
2021/09/29 14:52:35;;;;;;;;;;;;;;;;;;5071734;28;20303;-67
2021/09/29 14:55:05;;;;;;;;;;;;;;;;;;5072091;28;20284;-69
2021/09/29 14:57:33;;;;;;;;;;;;;;;;;;5069741;28;19931;-69
2021/09/29 15:00:16;;;;;;;;;;;;;;;;;;5070118;28;20385;-64
2021/09/29 15:02:46;;;;;;;;;;;;;;;;;;5067441;28;19948;-66
2021/09/29 15:05:18;;;;;;;;;;;;;;;;;;5074142;28;19925;-65
2021/09/29 15:07:48;;;;;;;;;;;;;;;;;;5070794;28;19986;-67
2021/09/29 15:10:19;;;;;;;;;;;;;;;;;;5050974;28;20305;-68
2021/09/29 15:12:48;;;;;;;;;;;;;;;;;;5068670;28;19939;-67
2021/09/29 15:15:27;;;;;;;;;;;;;;;;;;5071198;28;19999;-68
2021/09/29 15:18:14;;;;;;;;;;;;;;;;;;5064905;28;19952;-68
2021/09/29 15:48:39;;;;;;;;;;;;;;;;;;5055340;28;19928;-69
2021/09/29 15:51:21;;;;;;;;;;;;;;;;;;5069839;28;20303;-68
2021/09/29 16:02:29;;;;;;;;;;;;;;;;;;5069186;28;19943;-68
2021/09/29 16:13:54;;;;;;;;;;;;;;;;;;5067753;28;19920;-67
2021/09/29 16:30:38;;;;;;;;;;;;;;;;;;5054299;28;19952;-67
2021/09/29 16:33:46;;;;;;;;;;;;;;;;;;5067001;28;19928;-67
2021/09/29 16:36:19;;;;;;;;;;;;;;;;;;5067282;28;19958;-67
2021/09/29 16:38:50;;;;;;;;;;;;;;;;;;5071870;28;20020;-67
2021/09/29 16:41:17;;;;;;;;;;;;;;;;;;5073916;28;19928;-68
2021/09/29 16:43:46;;;;;;;;;;;;;;;;;;5052178;28;20572;-68
2021/09/29 16:46:16;;;;;;;;;;;;;;;;;;5063013;28;19989;-68
2021/09/29 16:49:04;;;;;;;;;;;;;;;;;;5053637;28;19928;-68
2021/09/29 16:51:39;;;;;;;;;;;;;;;;;;5066611;28;19946;-68
2021/09/29 16:54:25;;;;;;;;;;;;;;;;;;5064963;28;19943;-68
2021/09/29 16:56:55;;;;;;;;;;;;;;;;;;5062367;28;20389;-67
2021/09/29 16:59:44;;;;;;;;;;;;;;;;;;5060474;28;19954;-67
2021/09/29 17:02:20;;;;;;;;;;;;;;;;;;5064362;28;19925;-67
2021/09/29 17:04:50;;;;;;;;;;;;;;;;;;5066083;28;20369;-67
2021/09/29 17:07:20;;;;;;;;;;;;;;;;;;5075580;28;20311;-68
2021/09/29 17:09:50;;;;;;;;;;;;;;;;;;5067564;28;19990;-69
2021/09/29 17:12:19;;;;;;;;;;;;;;;;;;5069238;28;19924;-69
2021/09/29 17:14:48;;;;;;;;;;;;;;;;;;5068363;28;19924;-69
2021/09/29 17:17:41;;;;;;;;;;;;;;;;;;5056431;28;19942;-69
2021/09/29 17:20:29;;;;;;;;;;;;;;;;;;5063318;28;20354;-68
2021/09/29 17:23:00;;;;;;;;;;;;;;;;;;5059006;28;20478;-67
2021/09/29 17:25:50;;;;;;;;;;;;;;;;;;5059848;28;19946;-68
2021/09/29 17:28:21;;;;;;;;;;;;;;;;;;5058922;28;19942;-68
2021/09/29 17:31:00;;;;;;;;;;;;;;;;;;5062503;28;20005;-68
2021/09/29 17:36:39;;;;;;;;;;;;;;;;;;5055494;28;20104;-68
2021/09/29 17:39:56;;;;;;;;;;;;;;;;;;5067129;28;19945;-67
2021/09/29 17:53:29;;;;;;;;;;;;;;;;;;5069958;28;19996;-68
2021/09/29 17:56:03;;;;;;;;;;;;;;;;;;5058665;28;19968;-68
2021/09/29 17:58:35;;;;;;;;;;;;;;;;;;5070808;28;19924;-68
2021/09/29 18:01:04;;;;;;;;;;;;;;;;;;5053951;28;20011;-68
2021/09/29 18:03:54;;;;;;;;;;;;;;;;;;5053666;28;20338;-67
2021/09/29 18:06:48;;;;;;;;;;;;;;;;;;5052619;28;19960;-68
2021/09/29 18:09:32;;;;;;;;;;;;;;;;;;5065850;28;19949;-68
2021/09/29 18:12:02;;;;;;;;;;;;;;;;;;5071187;28;19940;-68
2021/09/29 18:14:32;;;;;;;;;;;;;;;;;;5071258;28;19957;-68
2021/09/29 18:17:27;;;;;;;;;;;;;;;;;;5066470;28;19950;-68
2021/09/29 18:19:55;;;;;;;;;;;;;;;;;;5073778;28;19953;-68
2021/09/29 18:22:25;;;;;;;;;;;;;;;;;;5070404;28;19942;-68
2021/09/29 18:24:55;;;;;;;;;;;;;;;;;;5070899;28;19952;-67
2021/09/29 18:27:24;;;;;;;;;;;;;;;;;;5071112;28;19942;-67
2021/09/29 18:29:56;;;;;;;;;;;;;;;;;;5070232;28;19949;-67
2021/09/29 18:32:26;;;;;;;;;;;;;;;;;;5069334;28;19946;-68
2021/09/29 18:34:57;;;;;;;;;;;;;;;;;;5069321;28;19956;-70
2021/09/29 18:37:30;;;;;;;;;;;;;;;;;;5067000;28;19997;-66
2021/09/29 18:40:13;;;;;;;;;;;;;;;;;;5067968;28;19936;-66
2021/09/29 18:42:45;;;;;;;;;;;;;;;;;;5071930;28;19938;-66
2021/09/29 18:45:17;;;;;;;;;;;;;;;;;;5065851;28;19928;-66
2021/09/29 18:47:50;;;;;;;;;;;;;;;;;;5071484;28;20263;-67
2021/09/29 18:50:19;;;;;;;;;;;;;;;;;;5070831;28;20269;-65
2021/09/29 18:52:52;;;;;;;;;;;;;;;;;;5065860;28;19925;-68
2021/09/29 18:55:32;;;;;;;;;;;;;;;;;;5066149;28;19990;-66
2021/09/29 19:03:45;;;;;;;;;;;;;;;;;;5071438;28;20532;-67
2021/09/29 19:04:09;;;;;;;;;;;;;;;;;;5070819;28;19946;-65
2021/09/29 19:09:28;;;;;;;;;;;;;;;;;;5066312;28;19925;-66
2021/09/29 19:12:03;;;;;;;;;;;;;;;;;;5070652;28;19951;-66
2021/09/29 19:14:41;;;;;;;;;;;;;;;;;;5066774;28;19961;-65
2021/09/29 19:17:28;;;;;;;;;;;;;;;;;;5068535;28;19963;-67
2021/09/29 19:20:00;;;;;;;;;;;;;;;;;;5063136;28;19939;-66
2021/09/29 19:22:33;;;;;;;;;;;;;;;;;;5066423;28;19937;-68
2021/09/29 19:25:03;;;;;;;;;;;;;;;;;;5055070;28;19948;-70
2021/09/29 19:27:36;;;;;;;;;;;;;;;;;;5069987;28;19943;-70
2021/09/29 19:30:10;;;;;;;;;;;;;;;;;;5068475;28;19965;-70
2021/09/29 19:32:45;;;;;;;;;;;;;;;;;;5070088;28;19950;-71
2021/09/29 19:35:12;;;;;;;;;;;;;;;;;;5068027;28;19943;-69
2021/09/29 19:37:56;;;;;;;;;;;;;;;;;;5063981;28;20026;-71
2021/09/29 19:40:29;;;;;;;;;;;;;;;;;;5066948;28;20268;-66
2021/09/29 19:42:58;;;;;;;;;;;;;;;;;;5059720;28;19941;-67
2021/09/29 19:45:27;;;;;;;;;;;;;;;;;;5064592;28;20255;-67
2021/09/29 20:07:47;;;;;;;;;;;;;;;;;;5052729;28;19954;-68
2021/09/29 20:10:16;;;;;;;;;;;;;;;;;;5066524;28;19953;-68
2021/09/29 20:12:45;;;;;;;;;;;;;;;;;;5062537;28;19942;-68
2021/09/29 20:15:16;;;;;;;;;;;;;;;;;;5070166;28;19938;-68
2021/09/29 20:17:44;;;;;;;;;;;;;;;;;;5069940;28;19949;-68
2021/09/29 20:20:16;;;;;;;;;;;;;;;;;;5050667;28;19933;-67
2021/09/29 20:22:50;;;;;;;;;;;;;;;;;;5071049;28;20552;-68
2021/09/29 20:25:24;;;;;;;;;;;;;;;;;;5069148;28;19940;-67
2021/09/29 20:27:51;;;;;;;;;;;;;;;;;;5070313;28;19932;-67
2021/09/29 20:30:20;;;;;;;;;;;;;;;;;;5070355;28;19967;-67
2021/09/29 20:32:50;;;;;;;;;;;;;;;;;;5069816;28;20347;-65
2021/09/29 20:35:36;;;;;;;;;;;;;;;;;;5062437;28;19954;-68
2021/09/29 20:43:55;;;;;;;;;;;;;;;;;;5069630;28;19954;-67
2021/09/29 20:46:24;;;;;;;;;;;;;;;;;;5071907;28;19939;-67
2021/09/29 20:49:06;;;;;;;;;;;;;;;;;;5045918;28;19962;-67
2021/09/29 20:51:35;;;;;;;;;;;;;;;;;;5047407;28;19934;-67
2021/09/29 20:54:07;;;;;;;;;;;;;;;;;;5049681;28;20000;-67
2021/09/29 20:56:37;;;;;;;;;;;;;;;;;;5050268;28;19929;-67
2021/09/29 20:59:06;;;;;;;;;;;;;;;;;;5043137;28;19943;-67
2021/09/29 21:01:36;;;;;;;;;;;;;;;;;;5047683;28;19930;-67
2021/09/29 21:04:06;;;;;;;;;;;;;;;;;;5046313;28;20358;-67
2021/09/29 21:06:40;;;;;;;;;;;;;;;;;;5034029;28;19935;-67
2021/09/29 21:09:15;;;;;;;;;;;;;;;;;;5048277;28;19942;-67
2021/09/29 21:12:00;;;;;;;;;;;;;;;;;;5054603;28;19969;-68
2021/09/29 21:20:13;;;;;;;;;;;;;;;;;;5051133;28;19954;-67
2021/09/29 21:22:44;;;;;;;;;;;;;;;;;;5043237;28;20246;-67
2021/09/29 21:25:13;;;;;;;;;;;;;;;;;;5049091;28;19945;-67
2021/09/29 21:27:42;;;;;;;;;;;;;;;;;;5038282;28;19958;-67
2021/09/29 21:30:14;;;;;;;;;;;;;;;;;;5049233;28;19921;-67
2021/09/29 21:32:42;;;;;;;;;;;;;;;;;;5031281;28;19951;-67
2021/09/29 21:35:15;;;;;;;;;;;;;;;;;;5047260;28;19974;-67
2021/09/29 21:38:00;;;;;;;;;;;;;;;;;;5047783;28;19948;-67
2021/09/29 22:03:24;;;;;;;;;;;;;;;;;;4948908;29;19941;-67
2021/09/29 22:20:09;;;;;;;;;;;;;;;;;;4945618;28;19948;-67
2021/09/29 23:11:33;;;;;;;;;;;;;;;;;;4964404;28;20464;-67
2021/09/29 23:14:27;;;;;;;;;;;;;;;;;;4972062;28;19949;-67